Time;durP1;ratioP1;P1;durP2;ratioP2;P2;SDS_P1;SDS_P2;PMS_P1;PMS_P2;Temp;Humidity;BMP_temperature;BMP_pressure;BME280_temperature;BME280_humidity;BME280_pressure;Samples;Min_cycle;Max_cycle;Signal;HPM_P1;HPM_P2
2022/10/16 00:01:08;;;;;;;20.40;19.25;;;17.40;97.30;;;;;;4935872;28;20042;-82
2022/10/16 00:03:34;;;;;;;20.35;19.27;;;17.50;97.30;;;;;;4968974;28;20464;-82
2022/10/16 00:06:01;;;;;;;21.30;20.25;;;17.30;97.70;;;;;;4977321;28;20031;-82
2022/10/16 00:08:27;;;;;;;20.85;19.75;;;17.40;97.80;;;;;;4987858;28;20046;-82
2022/10/16 00:11:08;;;;;;;21.42;20.05;;;17.40;97.60;;;;;;4987753;28;20031;-82
2022/10/16 00:13:34;;;;;;;21.50;20.48;;;17.40;97.70;;;;;;5002758;28;20042;-82
2022/10/16 00:16:01;;;;;;;20.98;19.90;;;17.30;98.00;;;;;;4955668;28;20038;-83
2022/10/16 00:18:27;;;;;;;24.25;23.05;;;17.30;97.90;;;;;;4987773;28;20038;-82
2022/10/16 00:20:54;;;;;;;24.35;23.02;;;17.30;98.00;;;;;;4988335;28;20038;-83
2022/10/16 00:23:20;;;;;;;25.80;24.50;;;17.40;97.80;;;;;;4991290;28;20396;-83
2022/10/16 00:25:55;;;;;;;26.10;24.65;;;17.40;97.90;;;;;;4958874;28;20031;-82
2022/10/16 00:28:21;;;;;;;24.15;22.92;;;17.40;97.90;;;;;;5007835;28;20034;-82
2022/10/16 00:30:47;;;;;;;23.08;21.92;;;17.40;97.90;;;;;;5008045;28;20495;-82
2022/10/16 00:33:13;;;;;;;25.13;23.85;;;17.40;97.90;;;;;;4991785;28;20035;-82
2022/10/16 00:35:39;;;;;;;23.35;22.13;;;17.40;97.90;;;;;;4958832;28;20396;-82
2022/10/16 00:38:06;;;;;;;26.65;25.25;;;17.40;97.90;;;;;;4987672;28;20043;-82
2022/10/16 00:40:32;;;;;;;26.00;24.60;;;17.40;98.00;;;;;;4972377;28;20389;-82
2022/10/16 00:42:58;;;;;;;28.50;26.88;;;17.40;98.00;;;;;;4979932;28;20035;-82
2022/10/16 00:45:24;;;;;;;26.52;25.20;;;17.30;98.00;;;;;;4990441;28;20042;-82
2022/10/16 00:47:51;;;;;;;27.40;26.00;;;17.30;98.30;;;;;;5007332;28;20065;-82
2022/10/16 00:50:33;;;;;;;26.33;24.85;;;17.30;98.30;;;;;;4991447;28;20034;-82
2022/10/16 00:53:00;;;;;;;24.95;23.35;;;17.30;98.30;;;;;;4991127;28;20459;-82
2022/10/16 00:55:27;;;;;;;25.55;24.15;;;17.40;98.20;;;;;;4990951;28;20035;-82
2022/10/16 00:57:53;;;;;;;24.63;23.13;;;17.40;98.10;;;;;;4990086;28;20031;-82
2022/10/16 01:00:24;;;;;;;24.02;22.80;;;17.40;98.40;;;;;;4942461;28;20031;-82
2022/10/16 01:02:58;;;;;;;23.00;21.70;;;17.30;98.70;;;;;;4943387;28;20054;-82
2022/10/16 01:05:33;;;;;;;22.38;21.02;;;17.20;98.80;;;;;;4974866;28;20278;-82
2022/10/16 01:08:24;;;;;;;22.80;21.58;;;17.30;98.70;;;;;;4972834;28;20046;-82
2022/10/16 01:10:50;;;;;;;;;;;17.30;98.80;;;;;;4988962;28;20460;-82
2022/10/16 01:13:45;;;;;;;19.70;18.48;;;17.20;99.00;;;;;;4975766;28;19917;-82
2022/10/16 01:16:24;;;;;;;23.52;22.35;;;17.20;99.00;;;;;;4971389;28;20043;-82
2022/10/16 01:18:54;;;;;;;26.23;24.83;;;17.20;99.30;;;;;;5006948;28;20026;-82
2022/10/16 01:21:30;;;;;;;23.90;22.65;;;17.10;99.40;;;;;;4990465;28;20049;-82
2022/10/16 01:24:30;;;;;;;31.60;30.00;;;17.20;99.10;;;;;;4975988;28;20027;-83
2022/10/16 01:27:17;;;;;;;23.40;21.95;;;17.10;99.40;;;;;;5000983;28;20037;-82
2022/10/16 01:29:56;;;;;;;24.10;22.77;;;17.10;99.20;;;;;;4974475;28;20035;-82
2022/10/16 01:32:32;;;;;;;22.13;20.77;;;17.10;99.40;;;;;;4957775;28;20031;-82
2022/10/16 01:34:59;;;;;;;25.13;23.80;;;17.10;99.10;;;;;;5004251;28;20404;-82
2022/10/16 01:37:44;;;;;;;23.65;22.40;;;17.10;99.10;;;;;;5006475;28;20392;-82
2022/10/16 01:40:11;;;;;;;22.58;21.45;;;17.20;99.20;;;;;;4952386;28;20044;-82
2022/10/16 01:42:43;;;;;;;23.25;22.00;;;17.20;99.00;;;;;;4971117;28;20036;-82
2022/10/16 01:45:11;;;;;;;25.25;23.80;;;17.10;99.40;;;;;;4980135;28;20022;-83
2022/10/16 01:47:37;;;;;;;23.30;22.10;;;17.10;99.40;;;;;;4990094;28;20388;-82
2022/10/16 01:50:04;;;;;;;22.38;21.17;;;17.00;99.60;;;;;;4958386;28;20031;-82
2022/10/16 01:52:30;;;;;;;22.17;20.98;;;17.10;99.40;;;;;;4958599;28;20395;-82
2022/10/16 01:54:56;;;;;;;20.05;18.75;;;17.00;99.50;;;;;;4956778;28;20038;-83
2022/10/16 01:57:23;;;;;;;19.83;18.73;;;17.00;99.50;;;;;;4990066;28;20054;-82
2022/10/16 01:59:51;;;;;;;20.08;18.98;;;17.00;99.50;;;;;;4989392;28;20038;-82
2022/10/16 02:02:18;;;;;;;19.55;18.27;;;17.00;99.60;;;;;;4982588;28;20050;-82
2022/10/16 02:04:46;;;;;;;21.25;19.95;;;16.90;99.90;;;;;;4967368;28;20035;-82
2022/10/16 02:07:12;;;;;;;21.15;19.90;;;16.90;99.90;;;;;;4984202;28;20384;-83
2022/10/16 02:09:38;;;;;;;20.00;18.80;;;16.90;99.90;;;;;;4980798;28;20051;-83
2022/10/16 02:12:31;;;;;;;22.38;21.17;;;16.90;99.90;;;;;;4996742;28;20034;-83
2022/10/16 02:14:57;;;;;;;22.42;21.15;;;17.00;99.90;;;;;;4964574;28;20039;-83
2022/10/16 02:17:23;;;;;;;25.30;24.02;;;17.00;99.80;;;;;;4983876;28;20043;-83
2022/10/16 02:19:50;;;;;;;25.75;24.40;;;17.10;99.60;;;;;;4955876;28;20038;-83
2022/10/16 02:22:24;;;;;;;27.60;26.10;;;17.00;99.70;;;;;;4988157;28;20042;-83
2022/10/16 02:25:01;;;;;;;25.85;24.55;;;17.10;99.60;;;;;;4986274;28;20038;-83
2022/10/16 02:27:29;;;;;;;25.05;23.65;;;17.10;99.60;;;;;;4984439;28;20042;-83
2022/10/16 02:30:07;;;;;;;26.20;24.70;;;17.00;99.60;;;;;;4984560;28;20058;-83
2022/10/16 02:32:33;;;;;;;23.38;22.17;;;17.10;99.70;;;;;;4966856;28;20043;-83
2022/10/16 02:35:00;;;;;;;26.08;24.52;;;17.00;99.70;;;;;;4995543;28;20058;-83
2022/10/16 02:37:26;;;;;;;25.10;23.73;;;17.00;99.70;;;;;;4971987;28;20047;-82
2022/10/16 02:39:52;;;;;;;26.25;24.85;;;17.00;99.70;;;;;;4989774;28;20030;-82
2022/10/16 02:42:18;;;;;;;24.25;22.73;;;17.00;99.70;;;;;;4989900;28;20038;-83
2022/10/16 02:44:44;;;;;;;30.80;29.30;;;17.10;99.60;;;;;;4989170;28;20035;-82
2022/10/16 02:47:11;;;;;;;27.20;25.65;;;17.20;99.50;;;;;;4984205;28;20492;-82
2022/10/16 02:49:37;;;;;;;28.88;27.38;;;17.20;99.40;;;;;;4983570;28;20042;-82
2022/10/16 02:52:03;;;;;;;26.65;25.13;;;17.20;99.30;;;;;;4973899;28;20043;-82
2022/10/16 02:54:30;;;;;;;28.55;26.98;;;17.20;99.50;;;;;;4937870;28;20087;-82
2022/10/16 02:56:56;;;;;;;26.92;25.40;;;17.20;99.40;;;;;;4972429;28;20051;-82
2022/10/16 02:59:22;;;;;;;25.98;24.58;;;17.10;99.50;;;;;;4972914;28;20042;-82
2022/10/16 03:01:48;;;;;;;28.65;27.17;;;17.10;99.40;;;;;;4956427;28;20043;-82
2022/10/16 03:04:14;;;;;;;22.10;20.80;;;17.10;99.60;;;;;;4941362;28;20042;-82
2022/10/16 03:06:41;;;;;;;26.98;25.55;;;17.00;99.80;;;;;;4937549;28;20039;-82
2022/10/16 03:09:07;;;;;;;24.30;23.08;;;17.00;99.70;;;;;;4954065;28;20397;-82
2022/10/16 03:11:33;;;;;;;25.17;23.75;;;17.00;99.70;;;;;;4969814;28;20031;-82
2022/10/16 03:14:00;;;;;;;25.30;23.73;;;17.10;99.70;;;;;;4972391;28;20383;-82
2022/10/16 03:16:26;;;;;;;27.55;25.95;;;17.10;99.70;;;;;;4971861;28;20367;-82
2022/10/16 03:18:52;;;;;;;26.30;24.70;;;17.00;99.60;;;;;;4989031;28;20364;-82
2022/10/16 03:21:18;;;;;;;26.83;25.00;;;17.00;99.80;;;;;;4988237;28;20039;-82
2022/10/16 03:23:44;;;;;;;26.95;25.35;;;16.90;99.80;;;;;;4943248;28;20039;-82
2022/10/16 03:26:10;;;;;;;26.73;25.17;;;16.90;99.90;;;;;;4971954;28;20031;-82
2022/10/16 03:28:36;;;;;;;26.38;25.00;;;16.90;99.90;;;;;;4988780;28;20031;-82
2022/10/16 03:31:02;;;;;;;26.48;24.88;;;16.90;99.80;;;;;;4973003;28;20031;-82
2022/10/16 03:33:29;;;;;;;29.33;27.77;;;16.90;99.90;;;;;;5005030;28;20029;-82
2022/10/16 03:35:55;;;;;;;27.63;26.02;;;16.90;99.90;;;;;;4955136;28;20046;-82
2022/10/16 03:38:21;;;;;;;26.50;25.08;;;17.00;99.90;;;;;;4990217;28;20054;-82
2022/10/16 03:40:47;;;;;;;21.58;20.48;;;16.60;99.90;;;;;;4986231;28;20046;-82
2022/10/16 03:43:13;;;;;;;20.92;19.63;;;16.40;99.90;;;;;;4972275;28;20042;-82
2022/10/16 03:45:39;;;;;;;19.55;18.55;;;16.40;99.90;;;;;;4987319;28;20487;-82
2022/10/16 03:48:06;;;;;;;20.58;19.38;;;16.40;99.90;;;;;;4971254;28;20046;-82
2022/10/16 03:50:32;;;;;;;20.05;19.00;;;16.60;99.90;;;;;;5003916;28;20396;-83
2022/10/16 03:52:58;;;;;;;18.92;17.92;;;16.70;99.90;;;;;;4988392;28;20576;-82
2022/10/16 03:55:24;;;;;;;21.15;19.67;;;16.70;99.90;;;;;;4971014;28;20043;-82
2022/10/16 03:57:50;;;;;;;20.42;19.17;;;16.70;99.90;;;;;;4971567;28;20407;-82
2022/10/16 04:00:16;;;;;;;20.17;18.98;;;16.80;99.90;;;;;;5004310;28;20027;-83
2022/10/16 04:02:42;;;;;;;19.85;18.65;;;16.70;99.90;;;;;;5004648;28;20038;-82
2022/10/16 04:05:09;;;;;;;20.70;19.58;;;16.70;99.90;;;;;;4972620;28;20026;-83
2022/10/16 04:07:35;;;;;;;19.77;18.70;;;16.70;99.90;;;;;;5003754;28;20047;-85
2022/10/16 04:10:01;;;;;;;20.63;19.42;;;16.80;99.90;;;;;;4987770;28;20038;-85
2022/10/16 04:12:27;;;;;;;19.73;18.10;;;16.80;99.90;;;;;;4971771;28;20050;-84
2022/10/16 04:14:53;;;;;;;18.90;17.70;;;16.80;99.90;;;;;;4954643;28;20034;-84
2022/10/16 04:17:19;;;;;;;19.40;18.17;;;16.90;99.90;;;;;;4954104;28;20059;-84
2022/10/16 04:19:45;;;;;;;17.65;16.60;;;16.90;99.90;;;;;;5003756;28;20042;-84
2022/10/16 04:22:11;;;;;;;17.52;16.48;;;16.80;99.90;;;;;;4988312;28;20408;-84
2022/10/16 04:24:37;;;;;;;20.48;19.20;;;16.80;99.90;;;;;;4987365;28;20042;-84
2022/10/16 04:27:03;;;;;;;22.35;21.08;;;16.80;99.90;;;;;;4957559;28;20046;-84
2022/10/16 04:29:30;;;;;;;23.15;21.63;;;16.90;99.90;;;;;;4975817;28;20406;-84
2022/10/16 04:31:56;;;;;;;24.98;23.48;;;16.80;99.90;;;;;;4971405;28;20030;-84
2022/10/16 04:34:22;;;;;;;20.83;19.52;;;16.90;99.90;;;;;;4971692;28;20459;-84
2022/10/16 04:36:51;;;;;;;20.98;19.88;;;16.90;99.90;;;;;;4954388;28;20384;-84
2022/10/16 04:39:17;;;;;;;21.10;20.00;;;16.40;99.90;;;;;;4987361;28;20472;-84
2022/10/16 04:41:43;;;;;;;21.55;20.33;;;16.20;99.90;;;;;;4986639;28;20054;-84
2022/10/16 04:44:09;;;;;;;22.58;21.27;;;16.30;99.90;;;;;;4984376;28;20485;-84
2022/10/16 04:46:35;;;;;;;20.15;18.95;;;16.30;99.90;;;;;;4984180;28;20506;-84
2022/10/16 04:49:01;;;;;;;21.20;19.95;;;16.20;99.90;;;;;;4986912;28;20035;-84
2022/10/16 04:51:27;;;;;;;22.73;21.55;;;16.10;99.90;;;;;;5004447;28;20394;-85
2022/10/16 04:53:54;;;;;;;21.73;20.52;;;16.10;99.90;;;;;;4988013;28;20034;-84
2022/10/16 04:56:21;;;;;;;20.83;19.52;;;16.30;99.90;;;;;;4987095;28;20400;-84
2022/10/16 04:58:47;;;;;;;21.05;19.75;;;16.30;99.90;;;;;;4970797;28;20055;-84
2022/10/16 05:01:13;;;;;;;19.85;18.55;;;16.40;99.90;;;;;;4972092;28;20043;-84
2022/10/16 05:03:39;;;;;;;20.88;19.65;;;16.50;99.90;;;;;;4972482;28;20035;-84
2022/10/16 05:06:06;;;;;;;17.52;16.52;;;16.60;99.90;;;;;;5003047;28;20388;-84
2022/10/16 05:08:32;;;;;;;18.73;17.73;;;16.50;99.90;;;;;;4956672;28;20054;-85
2022/10/16 05:10:58;;;;;;;24.05;22.75;;;16.40;99.90;;;;;;5007617;28;20026;-84
2022/10/16 05:13:24;;;;;;;23.50;22.13;;;16.50;99.90;;;;;;5006902;28;20030;-84
2022/10/16 05:15:51;;;;;;;24.25;22.95;;;16.50;99.90;;;;;;4973808;28;20515;-84
2022/10/16 05:18:17;;;;;;;24.65;23.25;;;16.50;99.90;;;;;;4990315;28;20047;-84
2022/10/16 05:20:43;;;;;;;18.17;17.08;;;16.50;99.90;;;;;;4986781;28;20043;-84
2022/10/16 05:23:12;;;;;;;23.65;22.25;;;16.60;99.90;;;;;;4971365;28;20054;-84
2022/10/16 05:25:38;;;;;;;22.35;21.23;;;16.50;99.90;;;;;;4989957;28;20373;-84
2022/10/16 05:28:04;;;;;;;17.35;16.35;;;16.40;99.90;;;;;;4990196;28;20047;-84
2022/10/16 05:30:30;;;;;;;17.38;16.48;;;16.40;99.90;;;;;;4990496;28;20038;-85
2022/10/16 05:32:56;;;;;;;20.95;19.20;;;16.40;99.90;;;;;;4988143;28;20380;-84
2022/10/16 05:35:22;;;;;;;19.25;17.95;;;16.40;99.90;;;;;;4987820;28;20043;-85
2022/10/16 05:37:48;;;;;;;18.00;16.90;;;16.40;99.90;;;;;;5005020;28;20077;-85
2022/10/16 05:40:14;;;;;;;18.33;17.02;;;16.40;99.90;;;;;;4974502;28;20046;-86
2022/10/16 05:42:41;;;;;;;17.42;16.42;;;16.30;99.90;;;;;;4987895;28;20023;-85
2022/10/16 05:45:08;;;;;;;16.42;15.38;;;16.40;99.90;;;;;;5003700;28;20123;-86
2022/10/16 05:47:34;;;;;;;17.63;16.52;;;16.30;99.90;;;;;;4989589;28;20027;-84
2022/10/16 05:50:00;;;;;;;16.23;15.32;;;16.40;99.90;;;;;;4990274;28;20038;-84
2022/10/16 05:52:27;;;;;;;15.85;14.85;;;16.40;99.90;;;;;;4990345;28;20038;-85
2022/10/16 05:54:53;;;;;;;16.35;15.45;;;16.40;99.90;;;;;;4986996;28;20034;-84
2022/10/16 05:57:19;;;;;;;15.77;14.70;;;16.40;99.90;;;;;;4998445;28;20052;-84
2022/10/16 05:59:45;;;;;;;15.52;14.63;;;16.40;99.90;;;;;;4957868;28;20046;-84
2022/10/16 06:02:12;;;;;;;18.83;17.55;;;16.40;99.90;;;;;;4941280;28;20035;-84
2022/10/16 06:04:38;;;;;;;18.60;17.38;;;16.40;99.90;;;;;;4941638;28;20495;-84
2022/10/16 06:07:04;;;;;;;19.33;18.17;;;16.40;99.90;;;;;;4986882;28;20039;-84
2022/10/16 06:09:30;;;;;;;19.95;18.85;;;16.40;99.90;;;;;;4985183;28;20490;-85
2022/10/16 06:11:57;;;;;;;20.73;19.42;;;16.30;99.90;;;;;;4989777;28;20035;-84
2022/10/16 06:14:23;;;;;;;17.45;16.15;;;16.30;99.90;;;;;;4997335;28;20471;-85
2022/10/16 06:16:49;;;;;;;17.70;16.50;;;16.30;99.90;;;;;;5008676;28;20049;-84
2022/10/16 06:19:16;;;;;;;19.92;18.73;;;16.30;99.90;;;;;;5004208;28;20043;-84
2022/10/16 06:21:42;;;;;;;20.70;19.42;;;16.00;99.90;;;;;;4989543;28;20407;-85
2022/10/16 06:24:08;;;;;;;22.20;20.77;;;15.80;99.90;;;;;;4974728;28;20037;-85
2022/10/16 06:26:34;;;;;;;20.23;18.88;;;15.80;99.90;;;;;;4974957;28;20047;-85
2022/10/16 06:29:00;;;;;;;21.75;20.15;;;15.80;99.90;;;;;;4973285;28;20035;-84
2022/10/16 06:31:28;;;;;;;23.20;21.80;;;15.80;99.90;;;;;;5005399;28;20042;-84
2022/10/16 06:33:55;;;;;;;23.30;21.85;;;15.80;99.90;;;;;;5005216;28;20029;-86
2022/10/16 06:36:22;;;;;;;30.80;29.05;;;15.80;99.90;;;;;;4973394;28;20554;-85
2022/10/16 06:38:48;;;;;;;26.83;24.85;;;15.70;99.90;;;;;;4973120;28;20058;-86
2022/10/16 06:41:16;;;;;;;27.80;25.90;;;15.50;99.90;;;;;;4987961;28;20042;-86
2022/10/16 06:43:42;;;;;;;26.70;24.83;;;15.40;99.90;;;;;;4989481;28;20038;-87
2022/10/16 06:46:10;;;;;;;26.83;25.35;;;15.40;99.90;;;;;;4988786;28;20038;-87
2022/10/16 06:48:36;;;;;;;29.40;27.73;;;15.50;99.90;;;;;;4956534;28;20479;-86
2022/10/16 06:51:04;;;;;;;31.98;30.15;;;15.50;99.90;;;;;;4956807;28;20035;-85
2022/10/16 06:53:32;;;;;;;34.00;31.85;;;15.50;99.90;;;;;;4990001;28;20057;-85
2022/10/16 06:56:01;;;;;;;30.83;28.83;;;15.50;99.90;;;;;;4989753;28;20034;-86
2022/10/16 06:58:27;;;;;;;29.92;27.85;;;15.50;99.90;;;;;;4971939;28;20416;-85
2022/10/16 07:00:57;;;;;;;27.42;25.70;;;15.40;99.90;;;;;;4952912;28;20031;-88
2022/10/16 07:03:23;;;;;;;26.52;24.85;;;15.50;99.90;;;;;;4970254;28;20043;-85
2022/10/16 07:05:49;;;;;;;27.60;25.85;;;15.50;99.90;;;;;;5124063;23;20986;-91
2022/10/16 07:08:15;;;;;;;33.85;31.55;;;15.40;99.90;;;;;;5020604;28;20037;-93
2022/10/16 07:10:41;;;;;;;37.40;35.22;;;15.50;99.90;;;;;;5020161;28;20034;-91
2022/10/16 07:13:07;;;;;;;36.80;34.38;;;15.50;99.90;;;;;;5017728;28;20027;-92
2022/10/16 07:15:33;;;;;;;37.65;35.38;;;15.50;99.90;;;;;;5001392;28;20475;-91
2022/10/16 07:17:59;;;;;;;35.75;33.55;;;15.60;99.90;;;;;;5002408;28;20109;-89
2022/10/16 07:20:25;;;;;;;36.70;34.60;;;15.50;99.90;;;;;;4995875;28;20033;-89
2022/10/16 07:22:52;;;;;;;34.72;32.60;;;15.40;99.90;;;;;;5009179;28;20034;-88
2022/10/16 07:25:18;;;;;;;31.20;29.33;;;15.30;99.90;;;;;;4980098;28;20102;-89
2022/10/16 07:27:44;;;;;;;30.05;28.13;;;15.30;99.90;;;;;;4979590;28;20030;-89
2022/10/16 07:30:10;;;;;;;25.70;24.00;;;15.30;99.90;;;;;;4990591;28;20037;-88
2022/10/16 07:32:36;;;;;;;32.10;30.08;;;15.20;99.90;;;;;;4974674;28;20038;-89
2022/10/16 07:35:02;;;;;;;31.13;28.98;;;15.30;99.90;;;;;;4993062;28;20034;-92
2022/10/16 07:37:28;;;;;;;38.08;35.63;;;15.40;99.90;;;;;;4983097;28;20031;-88
2022/10/16 07:39:54;;;;;;;32.17;30.05;;;15.50;99.90;;;;;;5042120;23;20042;-88
2022/10/16 07:42:21;;;;;;;40.15;37.72;;;15.50;99.90;;;;;;4989355;28;20034;-92
2022/10/16 07:44:47;;;;;;;31.55;29.70;;;15.50;99.90;;;;;;4985161;28;20047;-90
2022/10/16 07:47:13;;;;;;;43.58;41.00;;;15.50;99.90;;;;;;4984671;28;20034;-91
2022/10/16 07:49:39;;;;;;;22.95;21.42;;;15.70;99.90;;;;;;5001754;28;20059;-87
2022/10/16 07:52:05;;;;;;;31.42;29.50;;;15.80;99.90;;;;;;4964446;28;20042;-90
2022/10/16 07:54:31;;;;;;;37.17;35.00;;;15.70;99.90;;;;;;4975648;28;20038;-92
2022/10/16 07:56:57;;;;;;;32.58;30.65;;;15.70;99.90;;;;;;4993393;28;20458;-89
2022/10/16 07:59:23;;;;;;;35.17;33.10;;;15.80;99.90;;;;;;4993254;28;20031;-92
2022/10/16 08:01:50;;;;;;;36.15;34.10;;;15.80;99.90;;;;;;4976000;28;20043;-90
2022/10/16 08:04:16;;;;;;;36.47;34.42;;;15.90;99.90;;;;;;4984089;28;20388;-88
2022/10/16 08:06:42;;;;;;;40.10;37.88;;;16.00;99.90;;;;;;4955851;28;20050;-88
2022/10/16 08:09:08;;;;;;;40.05;37.85;;;16.00;99.90;;;;;;4971792;28;20385;-87
2022/10/16 08:11:34;;;;;;;36.70;34.58;;;16.00;99.90;;;;;;4956573;28;20404;-86
2022/10/16 08:14:00;;;;;;;43.92;41.42;;;16.00;99.90;;;;;;4922454;29;20035;-89
2022/10/16 08:16:27;;;;;;;33.13;31.25;;;16.10;99.90;;;;;;4956328;28;20035;-89
2022/10/16 08:18:53;;;;;;;25.60;23.98;;;16.10;99.90;;;;;;4971885;28;20574;-88
2022/10/16 08:21:20;;;;;;;26.95;25.35;;;16.10;99.90;;;;;;4955268;28;20035;-87
2022/10/16 08:23:46;;;;;;;24.60;23.17;;;16.00;99.90;;;;;;4971815;28;20035;-90
2022/10/16 08:26:13;;;;;;;22.48;21.17;;;16.00;99.90;;;;;;4956065;28;20035;-88
2022/10/16 08:28:39;;;;;;;26.02;24.52;;;16.10;99.90;;;;;;4956516;28;20035;-88
2022/10/16 08:31:15;;;;;;;24.92;23.52;;;16.20;99.90;;;;;;4970730;28;20054;-87
2022/10/16 08:33:43;;;;;;;21.85;20.65;;;16.30;99.90;;;;;;4951717;28;20412;-85
2022/10/16 08:36:09;;;;;;;19.48;18.38;;;16.40;99.90;;;;;;4950084;28;20046;-85
2022/10/16 08:38:36;;;;;;;19.25;18.20;;;16.60;99.90;;;;;;4932903;28;20077;-86
2022/10/16 08:41:28;;;;;;;21.50;20.30;;;16.70;99.90;;;;;;4934030;28;20046;-86
2022/10/16 08:44:15;;;;;;;26.17;24.67;;;16.70;99.90;;;;;;4986893;28;20039;-86
2022/10/16 08:46:53;;;;;;;18.15;17.23;;;16.90;99.90;;;;;;4967797;28;20408;-87
2022/10/16 08:49:19;;;;;;;25.65;24.27;;;16.90;99.90;;;;;;4975050;28;20042;-88
2022/10/16 08:51:48;;;;;;;27.42;26.05;;;16.90;99.90;;;;;;4941283;28;20038;-89
2022/10/16 08:54:50;;;;;;;33.53;31.83;;;16.90;99.90;;;;;;4958850;28;20023;-87
2022/10/16 08:57:22;;;;;;;32.13;30.52;;;16.90;99.90;;;;;;4952279;28;20078;-86
2022/10/16 08:59:49;;;;;;;28.10;26.67;;;16.80;99.90;;;;;;4930642;29;20054;-93
2022/10/16 09:02:24;;;;;;;26.13;24.70;;;16.80;99.90;;;;;;4967608;28;20047;-88
2022/10/16 09:04:50;;;;;;;27.25;25.83;;;16.80;99.90;;;;;;4971266;28;20570;-88
2022/10/16 09:07:43;;;;;;;28.98;27.42;;;16.80;99.90;;;;;;4971779;28;20050;-86
2022/10/16 09:10:18;;;;;;;31.30;29.80;;;16.90;99.90;;;;;;4923363;29;20043;-85
2022/10/16 09:13:12;;;;;;;29.00;27.50;;;17.00;99.90;;;;;;4956845;28;20050;-85
2022/10/16 09:15:53;;;;;;;27.45;25.88;;;17.10;99.90;;;;;;4955181;28;20038;-86
2022/10/16 09:18:30;;;;;;;30.27;28.77;;;17.10;99.90;;;;;;4953717;28;20058;-86
2022/10/16 09:21:10;;;;;;;31.45;29.85;;;17.10;99.90;;;;;;4941822;29;20023;-86
2022/10/16 09:23:36;;;;;;;29.15;27.65;;;17.20;99.90;;;;;;4960641;28;20034;-86
2022/10/16 09:26:03;;;;;;;26.70;25.38;;;17.20;99.90;;;;;;4958175;28;20043;-85
2022/10/16 09:28:29;;;;;;;23.17;22.02;;;17.20;99.90;;;;;;4946782;28;20039;-85
2022/10/16 09:30:55;;;;;;;28.83;27.40;;;17.20;99.90;;;;;;4960548;28;20057;-84
2022/10/16 09:33:25;;;;;;;27.27;25.90;;;17.20;99.90;;;;;;4983405;28;20030;-84
2022/10/16 09:35:56;;;;;;;25.02;23.73;;;17.20;99.90;;;;;;4977152;28;20375;-84
2022/10/16 09:38:23;;;;;;;23.33;22.13;;;17.20;99.90;;;;;;4971848;28;20492;-84
2022/10/16 09:40:49;;;;;;;25.45;24.23;;;17.20;99.90;;;;;;4986874;28;20042;-84
2022/10/16 09:43:27;;;;;;;24.92;23.63;;;17.30;99.90;;;;;;4976027;28;20042;-88
2022/10/16 09:46:05;;;;;;;24.80;23.50;;;17.40;99.90;;;;;;4982835;28;20499;-84
2022/10/16 09:48:44;;;;;;;23.55;22.40;;;17.40;99.90;;;;;;4970742;28;20038;-88
2022/10/16 09:51:22;;;;;;;24.30;23.10;;;17.40;99.90;;;;;;4978565;28;20034;-89
2022/10/16 09:53:48;;;;;;;25.15;23.85;;;17.50;99.90;;;;;;4956696;28;20031;-87
2022/10/16 09:56:32;;;;;;;25.25;23.85;;;17.50;99.90;;;;;;4960226;28;20035;-91
2022/10/16 09:59:00;;;;;;;26.40;25.10;;;17.60;99.90;;;;;;4977657;28;20063;-90
2022/10/16 10:01:35;;;;;;;22.55;21.38;;;17.60;99.90;;;;;;4964682;28;20030;-93
2022/10/16 10:04:02;;;;;;;23.33;22.05;;;17.70;99.90;;;;;;4968022;28;20023;-90
2022/10/16 10:06:34;;;;;;;24.80;23.45;;;17.80;99.90;;;;;;4957208;28;20046;-86
2022/10/16 10:09:14;;;;;;;28.05;26.65;;;17.90;99.90;;;;;;4972886;28;20043;-85
2022/10/16 10:11:40;;;;;;;29.35;27.85;;;18.00;99.90;;;;;;4974159;28;20026;-86
2022/10/16 10:14:16;;;;;;;29.33;27.63;;;18.10;99.90;;;;;;4973861;28;20043;-88
2022/10/16 10:16:42;;;;;;;29.02;27.35;;;18.20;99.90;;;;;;4941208;28;20042;-88
2022/10/16 10:19:24;;;;;;;35.40;33.25;;;18.50;99.90;;;;;;4958306;28;20050;-88
2022/10/16 10:21:51;;;;;;;39.20;36.88;;;18.60;99.90;;;;;;4956263;28;20031;-88
2022/10/16 10:24:18;;;;;;;39.67;37.42;;;18.70;99.90;;;;;;4952991;28;20031;-91
2022/10/16 10:27:15;;;;;;;34.65;32.83;;;18.80;99.90;;;;;;4957785;28;20678;-88
2022/10/16 10:29:50;;;;;;;42.38;40.17;;;18.90;99.90;;;;;;4965095;28;20046;-89
2022/10/16 10:32:49;;;;;;;41.25;39.10;;;18.90;99.90;;;;;;4973681;28;20042;-89
2022/10/16 10:35:36;;;;;;;39.97;37.92;;;19.00;99.90;;;;;;4970526;28;20054;-88
2022/10/16 10:38:31;;;;;;;38.50;36.25;;;19.00;99.90;;;;;;4956818;28;20045;-90
2022/10/16 10:41:10;;;;;;;34.08;31.98;;;19.00;99.90;;;;;;4944424;29;20063;-89
2022/10/16 10:44:03;;;;;;;33.45;31.63;;;18.90;99.90;;;;;;4951093;29;20039;-91
2022/10/16 10:46:33;;;;;;;31.10;29.20;;;19.00;99.90;;;;;;4933735;28;20040;-91
2022/10/16 10:49:06;;;;;;;33.40;31.50;;;19.10;99.90;;;;;;4918788;29;20035;-88
2022/10/16 10:52:17;;;;;;;34.78;32.90;;;19.10;99.90;;;;;;4918691;29;20040;-91
2022/10/16 10:54:50;;;;;;;32.55;30.45;;;19.20;99.90;;;;;;4896540;29;20047;-91
2022/10/16 10:57:27;;;;;;;29.00;27.40;;;19.40;99.90;;;;;;4842261;29;20042;-88
2022/10/16 11:00:03;;;;;;;33.00;30.95;;;19.50;99.90;;;;;;4858798;29;20053;-87
2022/10/16 11:02:37;;;;;;;34.50;32.60;;;19.50;99.90;;;;;;4857499;29;20038;-88
2022/10/16 11:05:31;;;;;;;35.00;32.97;;;19.60;99.90;;;;;;4860014;29;20048;-86
2022/10/16 11:08:16;;;;;;;35.83;33.75;;;19.70;99.90;;;;;;4854667;29;20033;-85
2022/10/16 11:10:48;;;;;;;33.63;31.83;;;19.70;99.60;;;;;;4849674;29;20056;-84
2022/10/16 11:13:25;;;;;;;35.50;33.40;;;19.70;99.90;;;;;;4875018;29;20037;-85
2022/10/16 11:15:52;;;;;;;25.20;23.60;;;19.70;99.70;;;;;;4872187;29;20059;-85
2022/10/16 11:18:40;;;;;;;26.75;25.02;;;19.80;99.40;;;;;;4889083;29;20074;-85
2022/10/16 11:21:08;;;;;;;27.65;25.85;;;19.80;99.00;;;;;;4919311;29;20035;-84
2022/10/16 11:23:42;;;;;;;24.23;22.70;;;19.80;99.10;;;;;;4901501;29;20036;-85
2022/10/16 11:26:16;;;;;;;25.67;24.20;;;19.80;99.10;;;;;;4902510;29;20047;-85
2022/10/16 11:29:00;;;;;;;28.23;26.23;;;19.80;99.30;;;;;;4899223;29;20385;-85
2022/10/16 11:31:35;;;;;;;22.05;20.73;;;20.00;99.60;;;;;;4942042;28;20043;-86
2022/10/16 11:34:33;;;;;;;24.27;22.67;;;20.20;99.40;;;;;;4987614;28;20045;-85
2022/10/16 11:37:11;;;;;;;24.58;23.08;;;20.30;98.50;;;;;;4967608;28;20057;-84
2022/10/16 11:39:38;;;;;;;27.85;26.15;;;20.40;98.70;;;;;;4971400;28;20508;-85
2022/10/16 11:42:19;;;;;;;27.02;25.40;;;20.40;98.40;;;;;;4970944;28;20026;-84
2022/10/16 11:45:08;;;;;;;28.60;26.80;;;20.40;98.20;;;;;;4973177;28;20392;-84
2022/10/16 11:47:35;;;;;;;22.60;21.30;;;20.30;98.20;;;;;;4954688;28;20054;-84
2022/10/16 11:50:32;;;;;;;22.42;20.85;;;20.30;98.00;;;;;;4936256;29;20047;-84
2022/10/16 11:53:01;;;;;;;26.00;24.38;;;20.40;98.40;;;;;;4938017;28;20043;-85
2022/10/16 11:55:34;;;;;;;24.60;23.08;;;20.50;98.20;;;;;;4970066;28;20407;-84
2022/10/16 11:58:15;;;;;;;27.83;26.20;;;20.50;98.00;;;;;;4956684;28;20038;-84
2022/10/16 12:00:58;;;;;;;24.88;23.48;;;20.50;98.20;;;;;;4953578;28;20066;-84
2022/10/16 12:03:29;;;;;;;23.80;22.50;;;20.70;98.30;;;;;;4956380;28;20023;-84
2022/10/16 12:06:13;;;;;;;23.95;22.55;;;20.70;97.40;;;;;;4971725;28;20037;-84
2022/10/16 12:08:39;;;;;;;24.33;23.05;;;20.80;97.60;;;;;;4972241;28;20039;-84
2022/10/16 12:11:22;;;;;;;25.17;23.77;;;20.80;97.30;;;;;;4955018;28;20605;-84
2022/10/16 12:13:48;;;;;;;25.10;23.70;;;20.80;97.40;;;;;;4954767;28;20372;-83
2022/10/16 12:16:14;;;;;;;26.23;24.73;;;20.80;96.90;;;;;;4954269;28;20046;-84
2022/10/16 12:18:41;;;;;;;24.13;22.75;;;20.80;97.40;;;;;;4974791;28;20058;-84
2022/10/16 12:21:07;;;;;;;27.27;25.65;;;20.90;97.80;;;;;;4940348;29;20054;-84
2022/10/16 12:23:37;;;;;;;34.75;32.95;;;21.10;97.00;;;;;;4939449;28;20425;-84
2022/10/16 12:26:04;;;;;;;27.85;26.25;;;21.20;96.50;;;;;;4957379;28;20035;-84
2022/10/16 12:28:31;;;;;;;27.13;25.63;;;21.10;96.60;;;;;;4941471;28;20046;-84
2022/10/16 12:31:05;;;;;;;26.25;24.85;;;21.10;96.90;;;;;;4975091;28;20035;-84
2022/10/16 12:33:33;;;;;;;31.77;30.05;;;21.20;96.70;;;;;;4974059;28;20026;-84
2022/10/16 12:36:00;;;;;;;27.60;26.10;;;21.30;96.20;;;;;;4943615;28;20035;-84
2022/10/16 12:38:28;;;;;;;27.02;25.35;;;21.30;96.20;;;;;;4958369;28;20464;-84
2022/10/16 12:41:05;;;;;;;33.00;31.27;;;21.30;96.30;;;;;;4973873;28;20412;-84
2022/10/16 12:43:44;;;;;;;29.60;28.00;;;21.40;95.50;;;;;;4958702;28;20039;-84